createdAt,value
2023-04-20T00:01:48.403Z,1.10
2023-04-20T00:04:18.964Z,1.67
2023-04-20T00:06:46.057Z,1.00
2023-04-20T00:09:16.193Z,1.60
2023-04-20T00:11:43.542Z,1.10
2023-04-20T00:14:10.627Z,1.00
2023-04-20T00:16:37.575Z,0.87
2023-04-20T00:19:04.744Z,1.50
2023-04-20T00:21:31.703Z,1.00
2023-04-20T00:23:58.660Z,1.00
2023-04-20T00:26:25.785Z,1.00
2023-04-20T00:28:52.979Z,0.90
2023-04-20T00:31:21.003Z,1.30
2023-04-20T00:33:48.625Z,1.20
2023-04-20T00:36:15.905Z,0.90
2023-04-20T00:38:42.878Z,1.07
2023-04-20T00:41:10.105Z,0.87
2023-04-20T00:43:38.095Z,0.80
2023-04-20T00:46:05.190Z,1.50
2023-04-20T00:48:32.257Z,0.77
2023-04-20T00:50:59.422Z,0.83
2023-04-20T00:53:26.449Z,1.20
2023-04-20T00:55:53.716Z,0.97
2023-04-20T00:58:21.506Z,1.30
2023-04-20T01:00:48.510Z,1.60
2023-04-20T01:03:15.883Z,1.40
2023-04-20T01:05:43.180Z,2.20
2023-04-20T01:08:10.126Z,1.20
2023-04-20T01:10:37.240Z,1.60
2023-04-20T01:13:04.342Z,1.37
2023-04-20T01:15:31.331Z,1.30
2023-04-20T01:17:58.444Z,1.30
2023-04-20T01:20:25.684Z,2.47
2023-04-20T01:22:56.427Z,1.20
2023-04-20T01:25:23.703Z,1.37
2023-04-20T01:27:50.841Z,1.20
2023-04-20T01:30:17.782Z,1.20
2023-04-20T01:32:45.316Z,1.33
2023-04-20T01:35:12.865Z,1.20
2023-04-20T01:37:40.694Z,1.20
2023-04-20T01:40:13.055Z,1.47
2023-04-20T01:42:40.186Z,1.30
2023-04-20T01:45:07.923Z,1.50
2023-04-20T01:47:35.676Z,1.00
2023-04-20T01:50:02.760Z,1.10
2023-04-20T01:52:29.741Z,1.20
2023-04-20T01:54:56.716Z,1.10
2023-04-20T01:57:23.689Z,1.13
2023-04-20T01:59:50.627Z,0.93
2023-04-20T02:02:18.145Z,1.10
2023-04-20T02:04:45.373Z,1.10
2023-04-20T02:07:12.343Z,1.43
2023-04-20T02:09:39.373Z,1.40
2023-04-20T02:12:06.549Z,1.60
2023-04-20T02:14:33.515Z,1.93
2023-04-20T02:17:01.176Z,1.83
2023-04-20T02:19:28.171Z,1.57
2023-04-20T02:21:55.125Z,1.67
2023-04-20T02:24:22.174Z,1.87
2023-04-20T02:26:49.254Z,1.50
2023-04-20T02:29:17.098Z,1.67
2023-04-20T02:31:44.894Z,2.13
2023-04-20T02:34:12.030Z,3.80
2023-04-20T02:36:39.018Z,2.47
2023-04-20T02:39:06.094Z,2.27
2023-04-20T02:41:33.141Z,1.90
2023-04-20T02:44:00.139Z,1.50
2023-04-20T02:46:27.318Z,2.70
2023-04-20T02:48:55.586Z,1.83
2023-04-20T02:51:22.614Z,1.80
2023-04-20T02:53:49.598Z,1.30
2023-04-20T02:56:16.619Z,1.70
2023-04-20T02:58:43.556Z,2.63
2023-04-20T03:01:10.695Z,1.50
2023-04-20T03:03:37.963Z,1.53
2023-04-20T03:06:05.366Z,1.73
2023-04-20T03:08:32.455Z,1.20
2023-04-20T03:10:59.544Z,1.50
2023-04-20T03:13:26.456Z,2.03
2023-04-20T03:15:54.005Z,1.97
2023-04-20T03:18:21.042Z,1.13
2023-04-20T03:20:48.076Z,1.40
2023-04-20T03:23:15.137Z,1.50
2023-04-20T03:25:42.901Z,1.40
2023-04-20T03:28:09.890Z,1.10
2023-04-20T03:30:36.875Z,1.30
2023-04-20T03:33:04.025Z,1.30
2023-04-20T03:35:31.045Z,1.47
2023-04-20T03:37:58.095Z,1.30
2023-04-20T03:40:25.504Z,1.20
2023-04-20T03:42:52.434Z,1.33
2023-04-20T03:45:19.524Z,1.93
2023-04-20T03:47:46.656Z,1.30
2023-04-20T03:50:13.754Z,1.53
2023-04-20T03:52:41.262Z,1.00
2023-04-20T03:55:08.718Z,1.20
2023-04-20T03:57:35.680Z,1.60
2023-04-20T04:00:04.002Z,1.63
2023-04-20T04:02:36.706Z,1.63
2023-04-20T04:05:05.728Z,1.60
2023-04-20T04:07:32.684Z,1.10
2023-04-20T04:09:59.696Z,1.47
2023-04-20T04:12:26.796Z,1.10
2023-04-20T04:14:53.725Z,1.20
2023-04-20T04:17:20.797Z,1.80
2023-04-20T04:19:47.914Z,1.40
2023-04-20T04:22:15.208Z,1.17
2023-04-20T04:24:42.320Z,2.03
2023-04-20T04:27:11.724Z,1.30
2023-04-20T04:29:38.894Z,1.83
2023-04-20T04:32:06.336Z,2.00
2023-04-20T04:34:33.998Z,2.47
2023-04-20T04:37:02.055Z,1.53
2023-04-20T04:39:30.282Z,1.40
2023-04-20T04:41:57.941Z,1.13
2023-04-20T04:44:26.171Z,2.07
2023-04-20T04:46:53.655Z,2.93
2023-04-20T04:49:21.047Z,1.60
2023-04-20T04:51:48.238Z,2.10
2023-04-20T04:54:15.406Z,1.90
2023-04-20T04:56:42.535Z,1.70
2023-04-20T04:59:09.522Z,2.13
2023-04-20T05:01:36.587Z,2.13
2023-04-20T05:04:03.859Z,2.40
2023-04-20T05:06:31.476Z,1.60
2023-04-20T05:08:58.684Z,1.73
2023-04-20T05:11:25.841Z,1.90
2023-04-20T05:13:52.817Z,1.73
2023-04-20T05:16:20.037Z,1.83
2023-04-20T05:18:47.290Z,4.20
2023-04-20T05:21:14.252Z,2.53
2023-04-20T05:24:07.473Z,2.10
2023-04-20T05:26:34.477Z,2.23
2023-04-20T05:29:01.828Z,2.90
2023-04-20T05:31:29.321Z,2.00
2023-04-20T05:33:56.344Z,2.53
2023-04-20T05:36:23.541Z,4.67
2023-04-20T05:38:50.748Z,3.57
2023-04-20T05:41:17.750Z,2.63
2023-04-20T05:43:44.711Z,2.10
2023-04-20T05:46:11.949Z,1.83
2023-04-20T05:48:38.979Z,5.27
2023-04-20T05:51:06.074Z,2.20
2023-04-20T05:53:33.082Z,1.40
2023-04-20T05:56:00.096Z,3.43
2023-04-20T05:58:27.578Z,1.80
2023-04-20T06:00:54.830Z,1.97
2023-04-20T06:03:22.013Z,1.47
2023-04-20T06:05:49.241Z,1.83
2023-04-20T06:08:16.490Z,1.83
2023-04-20T06:10:43.676Z,1.60
2023-04-20T06:13:10.914Z,1.33
2023-04-20T06:15:38.071Z,1.80
2023-04-20T06:18:05.742Z,1.17
2023-04-20T06:20:32.804Z,1.33
2023-04-20T06:22:59.930Z,1.67
2023-04-20T06:25:26.979Z,2.40
2023-04-20T06:27:53.926Z,2.27
2023-04-20T06:30:21.124Z,1.60
2023-04-20T06:32:48.075Z,2.50
2023-04-20T06:35:15.273Z,2.27
2023-04-20T06:37:42.410Z,1.27
2023-04-20T06:40:09.715Z,2.60
2023-04-20T06:42:37.603Z,2.37
2023-04-20T06:45:06.583Z,1.73
2023-04-20T06:47:34.174Z,1.33
2023-04-20T06:50:04.258Z,3.10
2023-04-20T06:52:32.131Z,1.87
2023-04-20T06:55:02.095Z,2.10
2023-04-20T06:57:29.073Z,2.73
2023-04-20T06:59:56.186Z,2.70
2023-04-20T07:02:23.304Z,2.07
2023-04-20T07:04:50.568Z,2.63
2023-04-20T07:07:17.697Z,1.60
2023-04-20T07:09:44.663Z,1.73
2023-04-20T07:12:15.804Z,1.40
2023-04-20T07:14:43.925Z,1.90
2023-04-20T07:17:10.992Z,1.27
2023-04-20T07:19:37.925Z,2.80
2023-04-20T07:22:05.077Z,2.03
2023-04-20T07:24:32.067Z,1.53
2023-04-20T07:26:59.077Z,2.20
2023-04-20T07:29:26.301Z,1.50
2023-04-20T07:31:53.370Z,2.80
2023-04-20T07:34:20.717Z,1.60
2023-04-20T07:36:48.225Z,3.10
2023-04-20T07:39:16.243Z,2.00
2023-04-20T07:41:44.001Z,1.20
2023-04-20T07:44:12.743Z,1.50
2023-04-20T07:46:40.171Z,2.43
2023-04-20T07:49:07.310Z,1.43
2023-04-20T07:51:34.598Z,1.77
2023-04-20T07:54:01.666Z,1.10
2023-04-20T07:56:28.697Z,1.83
2023-04-20T07:58:55.963Z,1.87
2023-04-20T08:01:26.373Z,1.67
2023-04-20T08:03:56.117Z,1.77
2023-04-20T08:06:23.703Z,2.70
2023-04-20T08:08:50.833Z,1.93
2023-04-20T08:11:17.821Z,4.33
2023-04-20T08:13:44.983Z,1.17
2023-04-20T08:16:12.034Z,1.63
2023-04-20T08:18:39.241Z,2.03
2023-04-20T08:21:07.274Z,2.20
2023-04-20T08:23:34.423Z,2.20
2023-04-20T08:26:01.387Z,1.73
2023-04-20T08:28:33.299Z,1.30
2023-04-20T08:31:01.500Z,1.50
2023-04-20T08:33:28.676Z,1.97
2023-04-20T08:35:55.719Z,3.90
2023-04-20T08:38:33.377Z,1.63
2023-04-20T08:41:01.038Z,1.77
2023-04-20T08:43:28.071Z,1.13
2023-04-20T08:45:59.432Z,1.63
2023-04-20T08:48:28.369Z,1.20
2023-04-20T08:50:55.993Z,1.10
2023-04-20T08:53:23.023Z,1.13
2023-04-20T08:55:51.009Z,1.20
2023-04-20T08:58:18.758Z,2.10
2023-04-20T09:00:49.492Z,0.97
2023-04-20T09:03:16.857Z,1.13
2023-04-20T09:05:45.212Z,1.23
2023-04-20T09:08:12.160Z,1.40
2023-04-20T09:10:42.255Z,1.87
2023-04-20T09:13:21.225Z,1.40
2023-04-20T09:15:48.442Z,2.20
2023-04-20T09:18:16.199Z,1.00
2023-04-20T09:20:43.205Z,5.00
2023-04-20T09:23:14.878Z,1.57
2023-04-20T09:25:43.628Z,0.87
2023-04-20T09:28:11.480Z,1.20
2023-04-20T09:30:44.563Z,1.00
2023-04-20T09:33:12.833Z,1.20
2023-04-20T09:35:42.044Z,5.70
2023-04-20T09:38:10.535Z,1.67
2023-04-20T09:40:37.588Z,0.93
2023-04-20T09:43:15.174Z,1.13
2023-04-20T09:45:42.682Z,1.53
2023-04-20T09:48:10.548Z,2.13
2023-04-20T09:50:48.361Z,1.90
2023-04-20T09:53:19.693Z,1.50
2023-04-20T09:55:52.085Z,2.67
2023-04-20T09:58:23.219Z,1.40
2023-04-20T10:00:51.086Z,1.30
2023-04-20T10:03:19.694Z,5.03
2023-04-20T10:05:47.224Z,1.77
2023-04-20T10:08:14.381Z,1.97
2023-04-20T10:10:47.113Z,1.63
2023-04-20T10:13:15.559Z,1.43
2023-04-20T10:15:43.216Z,1.70
2023-04-20T10:18:25.241Z,1.67
2023-04-20T10:21:04.246Z,1.03
2023-04-20T10:23:31.356Z,1.50
2023-04-20T10:26:01.004Z,2.23
2023-04-20T10:28:43.131Z,1.40
2023-04-20T10:31:13.871Z,2.20
2023-04-20T10:33:54.696Z,1.00
2023-04-20T10:36:31.107Z,2.00
2023-04-20T10:38:59.189Z,1.80
2023-04-20T10:41:26.261Z,1.90
2023-04-20T10:43:53.341Z,1.10
2023-04-20T10:46:24.230Z,1.17
2023-04-20T10:49:03.933Z,1.57
2023-04-20T10:51:31.697Z,1.80
2023-04-20T10:54:00.022Z,1.57
2023-04-20T10:56:27.268Z,2.07
2023-04-20T10:58:55.078Z,1.60
2023-04-20T11:01:22.402Z,1.10
2023-04-20T11:03:53.315Z,1.40
2023-04-20T11:06:22.883Z,1.90
2023-04-20T11:08:49.913Z,1.63
2023-04-20T11:11:37.540Z,1.67
2023-04-20T11:14:11.881Z,1.87
2023-04-20T11:19:10.257Z,2.17
2023-04-20T11:21:42.872Z,1.70
2023-04-20T11:24:26.879Z,1.37
2023-04-20T11:26:54.845Z,1.57
2023-04-20T11:29:28.190Z,2.20
2023-04-20T11:31:56.216Z,3.80
2023-04-20T11:34:24.053Z,2.50
2023-04-20T11:36:51.727Z,1.93
2023-04-20T11:39:29.941Z,1.50
2023-04-20T11:41:57.400Z,1.67
2023-04-20T11:44:26.120Z,1.10
2023-04-20T11:46:54.560Z,1.90
2023-04-20T11:49:22.035Z,1.47
2023-04-20T11:51:49.055Z,2.07
2023-04-20T11:54:16.325Z,2.00
2023-04-20T11:56:44.913Z,3.50
2023-04-20T11:59:14.134Z,2.07
2023-04-20T12:01:41.777Z,1.90
2023-04-20T12:04:09.680Z,1.90
2023-04-20T12:06:36.853Z,1.73
2023-04-20T12:09:06.421Z,1.40
2023-04-20T12:11:33.509Z,1.70
2023-04-20T12:14:00.514Z,2.07
2023-04-20T12:16:27.680Z,1.80
2023-04-20T12:18:54.878Z,1.80
2023-04-20T12:21:22.060Z,2.43
2023-04-20T12:23:51.211Z,1.90
2023-04-20T12:26:18.312Z,1.47
2023-04-20T12:28:48.376Z,1.93
2023-04-20T12:31:15.750Z,1.30
2023-04-20T12:33:43.663Z,1.60
2023-04-20T12:36:11.049Z,1.57
2023-04-20T12:38:38.052Z,2.87
2023-04-20T12:41:05.304Z,1.40
2023-04-20T12:43:32.333Z,1.97
2023-04-20T12:45:59.399Z,3.10
2023-04-20T12:48:26.582Z,1.90
2023-04-20T12:50:53.608Z,2.30
2023-04-20T12:53:20.683Z,1.93
2023-04-20T12:55:49.473Z,2.00
2023-04-20T12:58:18.042Z,2.07
2023-04-20T13:00:45.192Z,1.73
2023-04-20T13:03:12.438Z,2.60
2023-04-20T13:05:39.552Z,1.90
2023-04-20T13:08:06.814Z,2.23
2023-04-20T13:10:33.820Z,1.70
2023-04-20T13:13:01.905Z,1.87
2023-04-20T13:15:39.108Z,1.67
2023-04-20T13:18:07.228Z,2.50
2023-04-20T13:20:34.458Z,1.87
2023-04-20T13:23:02.317Z,2.53
2023-04-20T13:25:32.817Z,2.17
2023-04-20T13:28:01.768Z,1.47
2023-04-20T13:30:29.057Z,1.23
2023-04-20T13:32:56.608Z,1.20
2023-04-20T13:35:24.531Z,1.10
2023-04-20T13:37:52.849Z,1.73
2023-04-20T13:40:19.818Z,1.77
2023-04-20T13:42:46.935Z,1.87
2023-04-20T13:45:14.009Z,4.30
2023-04-20T13:47:41.197Z,1.93
2023-04-20T13:50:09.464Z,2.17
2023-04-20T13:52:36.647Z,2.17
2023-04-20T13:55:04.658Z,1.93
2023-04-20T13:57:31.775Z,1.60
2023-04-20T14:00:01.215Z,2.03
2023-04-20T14:02:29.530Z,1.50
2023-04-20T14:05:00.986Z,1.90
2023-04-20T14:07:27.980Z,2.10
2023-04-20T14:09:56.640Z,1.40
2023-04-20T14:12:24.072Z,2.70
2023-04-20T14:14:53.858Z,1.70
2023-04-20T14:17:20.821Z,2.27
2023-04-20T14:19:49.699Z,1.90
2023-04-20T14:22:16.820Z,2.53
2023-04-20T14:24:45.627Z,1.60
2023-04-20T14:27:12.769Z,1.40
2023-04-20T14:29:39.794Z,1.80
2023-04-20T14:32:06.805Z,1.97
2023-04-20T14:34:34.154Z,1.30
2023-04-20T14:37:01.259Z,1.60
2023-04-20T14:39:28.247Z,1.70
2023-04-20T14:41:55.412Z,1.40
2023-04-20T14:44:22.354Z,1.70
2023-04-20T14:46:49.271Z,1.10
2023-04-20T14:49:16.624Z,2.30
2023-04-20T14:51:43.667Z,1.97
2023-04-20T14:54:11.105Z,1.57
2023-04-20T14:56:38.137Z,1.63
2023-04-20T14:59:05.229Z,2.30
2023-04-20T15:01:32.505Z,1.90
2023-04-20T15:03:59.738Z,1.87
2023-04-20T15:06:27.097Z,2.67
2023-04-20T15:08:57.343Z,2.13
2023-04-20T15:11:24.459Z,2.10
2023-04-20T15:13:52.687Z,2.60
2023-04-20T15:16:19.772Z,1.47
2023-04-20T15:18:46.888Z,1.77
2023-04-20T15:21:13.812Z,1.70
2023-04-20T15:23:40.770Z,1.43
2023-04-20T15:26:09.239Z,2.00
2023-04-20T15:28:36.400Z,2.27
2023-04-20T15:31:03.405Z,1.17
2023-04-20T15:33:30.789Z,0.90
2023-04-20T15:35:57.706Z,1.80
2023-04-20T15:38:24.869Z,5.67
2023-04-20T15:40:52.017Z,6.23
2023-04-20T15:43:18.943Z,2.20
2023-04-20T15:45:46.134Z,1.83
2023-04-20T15:48:13.333Z,2.37
2023-04-20T15:50:40.237Z,1.53
2023-04-20T15:53:07.541Z,1.67
2023-04-20T15:55:38.523Z,1.67
2023-04-20T15:58:05.554Z,1.60
2023-04-20T16:00:32.615Z,2.13
2023-04-20T16:03:02.014Z,1.60
2023-04-20T16:05:29.188Z,2.00
2023-04-20T16:07:57.915Z,1.30
2023-04-20T16:10:29.656Z,2.27
2023-04-20T16:12:57.113Z,3.20
2023-04-20T16:15:24.795Z,1.53
2023-04-20T16:17:51.859Z,2.73
2023-04-20T16:20:18.971Z,1.90
2023-04-20T16:22:45.985Z,1.37
2023-04-20T16:25:22.662Z,1.50
2023-04-20T16:27:51.557Z,2.67
2023-04-20T16:30:18.687Z,2.13
2023-04-20T16:32:45.920Z,2.13
2023-04-20T16:35:12.954Z,2.10
2023-04-20T16:37:39.924Z,1.47
2023-04-20T16:40:09.970Z,2.00
2023-04-20T16:42:37.148Z,2.20
2023-04-20T16:45:04.695Z,2.30
2023-04-20T16:47:31.977Z,2.43
2023-04-20T16:49:58.984Z,3.17
2023-04-20T16:52:25.945Z,2.33
2023-04-20T16:54:53.075Z,2.50
2023-04-20T16:57:20.018Z,1.50
2023-04-20T16:59:47.080Z,2.63
2023-04-20T17:02:14.298Z,3.37
2023-04-20T17:04:41.486Z,2.50
2023-04-20T17:07:08.624Z,2.00
2023-04-20T17:09:35.828Z,1.93
2023-04-20T17:12:02.934Z,1.63
2023-04-20T17:14:34.481Z,2.53
2023-04-20T17:17:01.640Z,2.20
2023-04-20T17:19:31.785Z,1.53
2023-04-20T17:22:03.698Z,3.13
2023-04-20T17:24:39.934Z,2.50
2023-04-20T17:27:08.280Z,2.50
2023-04-20T17:29:38.479Z,2.23
2023-04-20T17:32:12.040Z,4.37
2023-04-20T17:34:42.910Z,2.53
2023-04-20T17:37:13.407Z,3.73
2023-04-20T17:39:40.759Z,3.10
2023-04-20T17:42:07.950Z,2.60
2023-04-20T17:44:35.137Z,2.73
2023-04-20T17:47:02.637Z,3.00
2023-04-20T17:49:31.295Z,2.27
2023-04-20T17:51:59.358Z,2.97
2023-04-20T17:54:26.525Z,4.90
2023-04-20T17:56:53.482Z,2.37
2023-04-20T17:59:20.776Z,2.00
2023-04-20T18:01:49.507Z,2.20
2023-04-20T18:04:17.005Z,2.60
2023-04-20T18:06:44.451Z,2.30
2023-04-20T18:09:14.193Z,2.30
2023-04-20T18:11:41.913Z,1.87
2023-04-20T18:14:09.351Z,2.60
2023-04-20T18:16:36.459Z,3.00
2023-04-20T18:19:03.442Z,3.27
2023-04-20T18:21:30.680Z,2.47
2023-04-20T18:24:11.179Z,2.27
2023-04-20T18:34:44.834Z,2.10
2023-04-20T18:37:15.299Z,2.37
2023-04-20T18:39:42.298Z,3.33
2023-04-20T18:42:09.763Z,3.43
2023-04-20T18:44:37.240Z,2.33
2023-04-20T18:47:04.392Z,2.57
2023-04-20T18:49:32.272Z,3.27
2023-04-20T18:51:59.275Z,3.10
2023-04-20T18:54:26.327Z,3.37
2023-04-20T18:56:54.978Z,3.27
2023-04-20T18:59:22.000Z,3.90
2023-04-20T19:01:49.393Z,3.13
2023-04-20T19:04:17.677Z,3.00
2023-04-20T19:06:44.935Z,3.23
2023-04-20T19:09:12.142Z,3.50
2023-04-20T19:11:39.326Z,3.70
2023-04-20T19:14:06.600Z,4.00
2023-04-20T19:16:34.675Z,3.47
2023-04-20T19:19:04.067Z,3.50
2023-04-20T19:21:32.447Z,3.53
2023-04-20T19:23:59.409Z,3.43
2023-04-20T19:26:26.913Z,4.13
2023-04-20T19:28:58.300Z,3.63
2023-04-20T19:31:26.644Z,3.50
2023-04-20T19:33:55.341Z,3.40
2023-04-20T19:36:24.268Z,3.73
2023-04-20T19:38:51.379Z,3.70
2023-04-20T19:41:18.651Z,4.10
2023-04-20T19:43:48.998Z,3.80
2023-04-20T19:46:18.397Z,3.30
2023-04-20T19:48:45.958Z,4.27
2023-04-20T19:51:13.137Z,4.17
2023-04-20T19:53:40.223Z,3.97
2023-04-20T19:56:07.446Z,3.47
2023-04-20T19:58:36.232Z,4.70
2023-04-20T20:01:04.376Z,4.10
2023-04-20T20:03:31.674Z,3.77
2023-04-20T20:05:59.006Z,4.33
2023-04-20T20:08:26.285Z,3.73
2023-04-20T20:10:53.598Z,3.83
2023-04-20T20:13:21.330Z,4.17
2023-04-20T20:15:48.545Z,4.33
2023-04-20T20:18:15.732Z,4.03
2023-04-20T20:20:42.846Z,4.30
2023-04-20T20:23:09.816Z,5.30
2023-04-20T20:25:37.068Z,7.63
2023-04-20T20:28:04.319Z,5.07
2023-04-20T20:30:32.498Z,5.93
2023-04-20T20:32:59.756Z,4.27
2023-04-20T20:35:31.801Z,6.37
2023-04-20T20:37:59.837Z,4.97
2023-04-20T20:40:30.043Z,5.97
2023-04-20T20:42:57.554Z,5.03
2023-04-20T20:45:29.133Z,3.70
2023-04-20T20:47:56.790Z,3.97
2023-04-20T20:50:24.475Z,3.77
2023-04-20T20:52:51.492Z,3.40
2023-04-20T20:55:18.868Z,3.83
2023-04-20T20:57:47.573Z,3.57
2023-04-20T21:00:17.324Z,4.33
2023-04-20T21:02:47.045Z,3.10
2023-04-20T21:05:15.647Z,4.40
2023-04-20T21:07:42.573Z,3.83
2023-04-20T21:10:12.393Z,3.50
2023-04-20T21:12:40.738Z,3.40
2023-04-20T21:15:08.288Z,3.13
2023-04-20T21:17:36.194Z,3.27
2023-04-20T21:20:05.819Z,3.80
2023-04-20T21:22:32.766Z,3.97
2023-04-20T21:24:59.969Z,4.27
2023-04-20T21:27:27.970Z,3.17
2023-04-20T21:29:54.953Z,3.70
2023-04-20T21:32:22.129Z,4.07
2023-04-20T21:34:49.306Z,3.63
2023-04-20T21:37:16.378Z,3.30
2023-04-20T21:39:44.091Z,3.83
2023-04-20T21:42:11.130Z,3.50
2023-04-20T21:44:38.044Z,4.40
2023-04-20T21:47:05.141Z,3.17
2023-04-20T21:49:32.121Z,3.47
2023-04-20T21:51:59.012Z,3.60
2023-04-20T21:54:26.021Z,3.97
2023-04-20T21:56:52.921Z,4.83
2023-04-20T21:59:20.105Z,4.90
2023-04-20T22:01:47.529Z,6.27
2023-04-20T22:04:16.909Z,6.90
2023-04-20T22:06:44.070Z,7.10
2023-04-20T22:09:11.635Z,5.90
2023-04-20T22:11:38.570Z,5.63
2023-04-20T22:14:05.661Z,5.10
2023-04-20T22:16:35.723Z,4.40
2023-04-20T22:19:03.136Z,5.40
2023-04-20T22:21:30.100Z,8.03
2023-04-20T22:23:57.208Z,4.97
2023-04-20T22:26:24.450Z,5.43
2023-04-20T22:28:51.389Z,5.50
2023-04-20T22:31:18.500Z,11.20
2023-04-20T22:33:45.575Z,6.70
2023-04-20T22:36:12.568Z,6.67
2023-04-20T22:38:39.751Z,5.00
2023-04-20T22:41:06.721Z,4.70
2023-04-20T22:43:33.625Z,4.97
2023-04-20T22:46:00.878Z,8.87
2023-04-20T22:48:28.741Z,12.17
2023-04-20T22:50:55.737Z,20.83
2023-04-20T22:53:25.116Z,34.07
2023-04-20T22:55:52.021Z,11.33
2023-04-20T22:58:21.197Z,9.57
2023-04-20T23:00:48.261Z,12.37
2023-04-20T23:03:17.705Z,17.23
2023-04-20T23:05:44.914Z,17.67
2023-04-20T23:08:11.926Z,12.90
2023-04-20T23:10:39.203Z,7.90
2023-04-20T23:13:06.228Z,7.67
2023-04-20T23:15:33.198Z,8.27
2023-04-20T23:18:00.426Z,8.23
2023-04-20T23:20:27.543Z,6.93
2023-04-20T23:22:54.458Z,8.87
2023-04-20T23:25:21.489Z,6.37
2023-04-20T23:27:48.405Z,6.60
2023-04-20T23:30:15.737Z,5.43
2023-04-20T23:32:44.561Z,4.77
2023-04-20T23:35:11.863Z,6.97
2023-04-20T23:37:38.942Z,7.33
2023-04-20T23:40:07.558Z,5.97
2023-04-20T23:42:39.562Z,6.73
2023-04-20T23:45:07.216Z,4.77
2023-04-20T23:47:36.589Z,6.57
2023-04-20T23:50:03.908Z,6.17
2023-04-20T23:52:31.226Z,4.30
2023-04-20T23:54:58.238Z,4.27
2023-04-20T23:57:25.320Z,3.47
2023-04-20T23:59:52.367Z,11.70
